Columbus, North Dakota
Current Conditions -  °F | °C
As of 1:00 AM on Friday 19 Dec 2014 (Local Time) from CYEN Reporting Station
Light Snow Light Snow  
Wind Chill: 18°   Ceiling: 500
Heat Index: 27°   Visibility: 3mi
Dew Point: 25°   Wind: 8mph
Humidity: 93%   Direction: 230°SW
Pressure: 29.92"   Gusts: NA
Location:  48.9°N, 102.78°W
Report Text: CYEN 190700Z 23007KT 3SM -SN BR OVC005 M03/M04 A2992 RMK SC8SLP166
Loading
Personal Weather Stations






























Interactive Weather Map New forecast layout! Learn more

10-Day Weather Forecast

Advertisements
Track Severe Weather on mobile